Terminal Aerodrome Forecast
Issued by NWS

Home | Current Version | Previous Version | Text Only | Print | Product List | Glossary On
Versions: 1 2 3 4 5 6 7 8 9 10 11 12 13 14 15 16
000
FTUS41 KCAR 281738
TAFPQI
TAF
KPQI 281738Z 2818/2918 26008G18KT P6SM SCT020 BKN050
      TEMPO 2818/2820 BKN020
     FM282000 28012G20KT P6SM BKN035
     FM291200 27008KT P6SM VCSH BKN030
     FM291400 31010G20KT 2SM -SHSN OVC020
      AMD LTD TO CLD VIS AND WIND=

USA.gov is the U.S. government's official web portal to all federal, state and local government web resources and services.